createdAt,value
2019-05-06T00:02:04.591Z,87.10
2019-05-06T00:04:34.384Z,87.40
2019-05-06T00:07:04.377Z,87.60
2019-05-06T00:09:34.869Z,88.90
2019-05-06T00:12:04.945Z,88.10
2019-05-06T00:14:34.696Z,88.50
2019-05-06T00:17:04.554Z,87.90
2019-05-06T00:19:34.366Z,87.70
2019-05-06T00:22:04.797Z,88.10
2019-05-06T00:24:41.585Z,87.70
2019-05-06T00:27:18.885Z,87.90
2019-05-06T00:29:48.656Z,87.90
2019-05-06T00:32:18.426Z,87.30
2019-05-06T00:34:48.168Z,87.30
2019-05-06T00:37:17.937Z,87.30
2019-05-06T00:39:59.376Z,87.10
2019-05-06T00:42:36.828Z,87.50
2019-05-06T00:45:07.730Z,87.50
2019-05-06T00:47:37.567Z,88.40
2019-05-06T00:50:09.035Z,88.20
2019-05-06T00:52:38.937Z,88.70
2019-05-06T00:55:08.622Z,88.40
2019-05-06T00:57:44.573Z,88.30
2019-05-06T01:00:29.595Z,88.00
2019-05-06T01:02:59.334Z,87.50
2019-05-06T01:05:29.166Z,87.70
2019-05-06T01:07:59.225Z,87.20
2019-05-06T01:10:34.873Z,87.10
2019-05-06T01:13:09.902Z,87.20
2019-05-06T01:15:39.722Z,87.50
2019-05-06T01:18:09.535Z,87.40
2019-05-06T01:20:39.262Z,87.90
2019-05-06T01:23:09.106Z,87.80
2019-05-06T01:25:38.834Z,87.50
2019-05-06T01:28:08.587Z,87.70
2019-05-06T01:30:38.362Z,87.40
2019-05-06T01:33:08.233Z,87.90
2019-05-06T01:35:37.992Z,87.70
2019-05-06T01:38:31.096Z,87.20
2019-05-06T01:41:13.644Z,87.30
2019-05-06T01:43:43.911Z,87.10
2019-05-06T01:46:14.045Z,86.70
2019-05-06T01:48:50.011Z,87.10
2019-05-06T01:51:21.071Z,87.10
2019-05-06T01:53:51.160Z,87.10
2019-05-06T01:56:20.935Z,87.60
2019-05-06T01:58:50.840Z,88.00
2019-05-06T02:01:20.609Z,88.20
2019-05-06T02:03:50.373Z,88.20
2019-05-06T02:06:20.128Z,88.10
2019-05-06T02:08:49.910Z,88.00
2019-05-06T02:11:19.668Z,88.40
2019-05-06T02:13:49.460Z,88.10
2019-05-06T02:16:19.425Z,88.50
2019-05-06T02:18:49.126Z,88.50
2019-05-06T02:21:37.748Z,88.30
2019-05-06T02:24:10.385Z,88.00
2019-05-06T02:26:40.197Z,87.40
2019-05-06T02:29:12.523Z,87.70
2019-05-06T02:31:56.549Z,87.40
2019-05-06T02:34:45.842Z,87.50
2019-05-06T02:37:18.356Z,87.80
2019-05-06T02:39:48.052Z,87.50
2019-05-06T02:42:17.782Z,87.40
2019-05-06T02:44:47.707Z,87.80
2019-05-06T02:47:43.096Z,87.90
2019-05-06T02:50:16.155Z,88.10
2019-05-06T02:52:45.943Z,88.20
2019-05-06T02:55:15.773Z,88.20
2019-05-06T02:57:45.518Z,87.80
2019-05-06T03:03:23.823Z,88.10
2019-05-06T03:05:53.589Z,87.60
2019-05-06T03:08:23.863Z,87.30
2019-05-06T03:10:53.838Z,87.00
2019-05-06T03:13:24.076Z,87.30
2019-05-06T03:15:54.514Z,86.40
2019-05-06T03:18:24.339Z,86.90
2019-05-06T03:21:04.893Z,87.40
2019-05-06T03:23:36.937Z,86.70
2019-05-06T03:26:07.105Z,87.20
2019-05-06T03:28:37.070Z,87.40
2019-05-06T03:31:08.173Z,87.90
2019-05-06T03:33:57.055Z,87.70
2019-05-06T03:36:18.519Z,87.80
2019-05-06T03:38:43.140Z,88.00
2019-05-06T03:41:13.875Z,87.20
2019-05-06T03:43:44.029Z,87.00
2019-05-06T03:46:42.992Z,86.70
2019-05-06T03:49:13.489Z,87.40
2019-05-06T03:51:43.370Z,87.30
2019-05-06T03:54:14.467Z,86.50
2019-05-06T03:56:45.075Z,86.20
2019-05-06T03:59:17.025Z,86.30
2019-05-06T04:01:46.853Z,86.10
2019-05-06T04:04:17.147Z,86.70
2019-05-06T04:06:47.069Z,87.00
2019-05-06T04:09:17.236Z,87.10
2019-05-06T04:11:47.254Z,86.80
2019-05-06T04:14:17.959Z,86.50
2019-05-06T04:17:03.496Z,86.10
2019-05-06T04:19:53.428Z,86.00
2019-05-06T04:22:33.274Z,86.60
2019-05-06T04:25:23.345Z,85.60
2019-05-06T04:27:55.528Z,85.00
2019-05-06T04:30:25.475Z,85.50
2019-05-06T04:32:55.247Z,86.00
2019-05-06T04:35:24.972Z,86.10
2019-05-06T04:37:54.817Z,86.10
2019-05-06T04:43:19.813Z,86.70
2019-05-06T04:45:49.598Z,86.40
2019-05-06T04:48:19.617Z,86.30
2019-05-06T04:50:49.505Z,85.70
2019-05-06T04:53:19.422Z,85.90
2019-05-06T04:55:49.186Z,85.80
2019-05-06T04:58:19.100Z,85.10
2019-05-06T05:00:48.873Z,85.40
2019-05-06T05:03:18.636Z,85.50
2019-05-06T05:05:48.539Z,85.40
2019-05-06T05:08:18.286Z,86.20
2019-05-06T05:11:13.852Z,85.60
2019-05-06T05:14:02.831Z,85.60
2019-05-06T05:16:48.317Z,85.40
2019-05-06T05:19:20.344Z,86.40
2019-05-06T05:22:06.785Z,88.10
2019-05-06T05:24:38.113Z,86.60
2019-05-06T05:27:08.570Z,87.60
2019-05-06T05:29:38.378Z,87.20
2019-05-06T05:32:08.164Z,88.30
2019-05-06T05:34:40.646Z,88.80
2019-05-06T05:37:09.269Z,88.40
2019-05-06T05:39:38.957Z,89.00
2019-05-06T05:42:32.644Z,87.90
2019-05-06T05:45:02.804Z,88.00
2019-05-06T05:47:33.111Z,87.60
2019-05-06T05:50:18.713Z,88.60
2019-05-06T05:52:48.624Z,88.50
2019-05-06T05:55:18.399Z,89.30
2019-05-06T05:57:48.118Z,89.30
2019-05-06T06:00:18.914Z,88.60
2019-05-06T06:02:49.135Z,89.70
2019-05-06T06:05:19.057Z,89.90
2019-05-06T06:07:48.750Z,89.70
2019-05-06T06:10:24.972Z,88.80
2019-05-06T06:12:55.306Z,88.90
2019-05-06T06:15:32.898Z,87.90
2019-05-06T06:18:27.988Z,87.90
2019-05-06T06:21:27.901Z,87.00
2019-05-06T06:23:57.872Z,86.10
2019-05-06T06:26:27.633Z,85.00
2019-05-06T06:28:58.580Z,87.20
2019-05-06T06:31:46.801Z,86.00
2019-05-06T06:34:42.740Z,84.80
2019-05-06T06:37:42.672Z,83.80
2019-05-06T06:40:13.792Z,86.70
2019-05-06T06:42:45.202Z,87.20
2019-05-06T06:45:15.034Z,85.50
2019-05-06T06:47:49.186Z,83.20
2019-05-06T06:50:18.912Z,83.90
2019-05-06T06:52:48.648Z,84.50
2019-05-06T06:55:18.595Z,86.10
2019-05-06T06:58:02.695Z,84.60
2019-05-06T07:00:50.205Z,83.70
2019-05-06T07:03:32.651Z,84.50
2019-05-06T07:06:06.349Z,85.30
2019-05-06T07:08:37.645Z,83.70
2019-05-06T07:11:10.452Z,83.50
2019-05-06T07:13:46.903Z,85.70
2019-05-06T07:16:16.647Z,83.30
2019-05-06T07:18:46.384Z,86.10
2019-05-06T07:21:19.772Z,87.00
2019-05-06T07:23:49.498Z,83.30
2019-05-06T07:26:23.735Z,82.40
2019-05-06T07:28:52.914Z,83.10
2019-05-06T07:31:26.397Z,79.80
2019-05-06T07:33:54.019Z,80.10
2019-05-06T07:36:23.874Z,78.90
2019-05-06T07:38:53.838Z,78.30
2019-05-06T07:44:33.346Z,80.60
2019-05-06T07:47:23.972Z,82.80
2019-05-06T07:49:53.539Z,79.50
2019-05-06T07:52:24.915Z,81.40
2019-05-06T07:54:54.818Z,80.80
2019-05-06T07:57:24.655Z,78.60
2019-05-06T07:59:54.395Z,80.30
2019-05-06T08:02:24.202Z,77.10
2019-05-06T08:04:53.988Z,77.00
2019-05-06T08:07:23.765Z,79.10
2019-05-06T08:09:53.760Z,73.40
2019-05-06T08:12:23.551Z,76.20
2019-05-06T08:14:53.275Z,75.20
2019-05-06T08:17:28.310Z,76.10
2019-05-06T08:19:58.741Z,74.60
2019-05-06T08:23:08.535Z,75.60
2019-05-06T08:25:42.546Z,73.00
2019-05-06T08:28:15.140Z,74.50
2019-05-06T08:30:45.357Z,75.10
2019-05-06T08:33:21.949Z,72.80
2019-05-06T08:35:53.280Z,73.90
2019-05-06T08:38:23.156Z,74.60
2019-05-06T08:40:53.101Z,72.30
2019-05-06T08:43:23.178Z,70.40
2019-05-06T08:45:53.300Z,69.40
2019-05-06T08:48:23.430Z,70.90
2019-05-06T08:50:59.421Z,66.90
2019-05-06T08:53:57.908Z,70.30
2019-05-06T08:56:28.191Z,67.70
2019-05-06T08:59:03.032Z,70.00
2019-05-06T09:02:07.785Z,70.60
2019-05-06T09:04:37.578Z,69.10
2019-05-06T09:07:07.276Z,72.20
2019-05-06T09:09:42.062Z,69.30
2019-05-06T09:12:13.699Z,67.90
2019-05-06T09:14:43.502Z,68.20
2019-05-06T09:17:13.266Z,69.00
2019-05-06T09:19:43.014Z,67.00
2019-05-06T09:22:13.002Z,69.60
2019-05-06T09:24:42.906Z,65.20
2019-05-06T09:27:26.729Z,63.10
2019-05-06T09:30:06.772Z,67.70
2019-05-06T09:32:47.700Z,66.50
2019-05-06T09:38:24.848Z,66.00
2019-05-06T09:40:54.592Z,65.80
2019-05-06T09:43:24.348Z,68.80
2019-05-06T09:45:54.064Z,67.20
2019-05-06T09:48:33.195Z,63.90
2019-05-06T09:51:03.046Z,61.10
2019-05-06T09:53:39.165Z,62.10
2019-05-06T09:56:38.518Z,59.50
2019-05-06T09:59:09.582Z,57.90
2019-05-06T10:01:39.332Z,58.20
2019-05-06T10:04:09.053Z,59.40
2019-05-06T10:06:38.852Z,58.30
2019-05-06T10:09:15.256Z,57.60
2019-05-06T10:11:42.642Z,57.40
2019-05-06T10:14:12.951Z,58.40
2019-05-06T10:16:43.269Z,59.00
2019-05-06T10:19:13.378Z,62.20
2019-05-06T10:21:43.294Z,62.20
2019-05-06T10:24:13.287Z,63.60
2019-05-06T10:26:47.685Z,64.20
2019-05-06T10:29:43.255Z,62.60
2019-05-06T10:32:42.675Z,64.60
2019-05-06T10:35:13.185Z,63.80
2019-05-06T10:38:09.280Z,61.40
2019-05-06T10:40:58.963Z,60.60
2019-05-06T10:43:43.116Z,64.60
2019-05-06T10:46:13.250Z,65.00
2019-05-06T10:48:43.120Z,66.50
2019-05-06T10:51:22.890Z,63.80
2019-05-06T10:53:52.848Z,63.90
2019-05-06T10:56:52.470Z,64.90
2019-05-06T10:59:22.864Z,65.60
2019-05-06T11:01:54.786Z,63.40
2019-05-06T11:04:24.620Z,64.90
2019-05-06T11:06:54.471Z,65.60
2019-05-06T11:09:24.246Z,62.90
2019-05-06T11:11:53.996Z,61.30
2019-05-06T11:14:23.770Z,61.90
2019-05-06T11:16:53.535Z,61.80
2019-05-06T11:19:23.273Z,61.20
2019-05-06T11:21:55.993Z,64.80
2019-05-06T11:24:25.762Z,64.80
2019-05-06T11:26:55.588Z,62.20
2019-05-06T11:29:29.054Z,59.60
2019-05-06T11:32:16.439Z,61.70
2019-05-06T11:34:58.404Z,61.00
2019-05-06T11:37:47.079Z,64.60
2019-05-06T11:40:09.638Z,64.10
2019-05-06T11:42:39.353Z,58.90
2019-05-06T11:45:09.330Z,58.50
2019-05-06T11:47:42.197Z,54.20
2019-05-06T11:50:38.177Z,54.00
2019-05-06T11:53:12.496Z,56.00
2019-05-06T11:55:54.430Z,54.50
2019-05-06T11:58:46.796Z,55.70
2019-05-06T12:01:47.496Z,56.00
2019-05-06T12:04:26.305Z,58.80
2019-05-06T12:07:11.112Z,59.20
2019-05-06T12:09:41.144Z,55.60
2019-05-06T12:12:12.907Z,56.70
2019-05-06T12:14:43.057Z,56.50
2019-05-06T12:17:12.995Z,53.20
2019-05-06T12:19:43.232Z,56.40
2019-05-06T12:22:13.429Z,55.40
2019-05-06T12:24:43.261Z,54.30
2019-05-06T12:27:18.846Z,52.40
2019-05-06T12:29:48.612Z,55.00
2019-05-06T12:32:46.386Z,55.60
2019-05-06T12:35:16.176Z,57.90
2019-05-06T12:37:47.426Z,53.80
2019-05-06T12:40:17.456Z,54.10
2019-05-06T12:42:53.445Z,55.70
2019-05-06T12:45:32.920Z,53.00
2019-05-06T12:48:34.503Z,53.30
2019-05-06T12:51:15.397Z,53.70
2019-05-06T12:53:49.546Z,52.80
2019-05-06T12:56:26.090Z,55.00
2019-05-06T12:58:55.878Z,54.80
2019-05-06T13:01:25.749Z,55.90
2019-05-06T13:03:56.994Z,55.60
2019-05-06T13:06:26.758Z,54.20
2019-05-06T13:09:01.738Z,54.90
2019-05-06T13:11:28.299Z,53.20
2019-05-06T13:14:00.772Z,57.70
2019-05-06T13:16:29.480Z,56.80
2019-05-06T13:18:59.342Z,53.30
2019-05-06T13:21:29.115Z,56.60
2019-05-06T13:24:04.629Z,55.50
2019-05-06T13:26:36.942Z,56.20
2019-05-06T13:29:18.821Z,52.00
2019-05-06T13:31:48.660Z,53.20
2019-05-06T13:34:23.747Z,54.50
2019-05-06T13:36:53.848Z,54.40
2019-05-06T13:39:24.015Z,54.40
2019-05-06T13:41:53.790Z,55.50
2019-05-06T13:44:34.342Z,55.80
2019-05-06T13:47:05.763Z,56.90
2019-05-06T13:49:48.423Z,59.30
2019-05-06T13:52:22.956Z,59.60
2019-05-06T13:54:53.124Z,59.80
2019-05-06T13:57:23.013Z,59.40
2019-05-06T13:59:53.429Z,60.00
2019-05-06T14:02:43.714Z,60.50
2019-05-06T14:05:12.815Z,58.80
2019-05-06T14:07:43.430Z,58.00
2019-05-06T14:10:14.567Z,61.30
2019-05-06T14:12:44.278Z,61.70
2019-05-06T14:15:14.437Z,61.10
2019-05-06T14:17:44.177Z,60.80
2019-05-06T14:20:14.786Z,58.20
2019-05-06T14:22:44.587Z,58.70
2019-05-06T14:25:43.204Z,58.90
2019-05-06T14:28:20.380Z,58.30
2019-05-06T14:31:12.019Z,58.90
2019-05-06T14:33:42.797Z,59.20
2019-05-06T14:36:12.806Z,58.00
2019-05-06T14:38:43.080Z,56.60
2019-05-06T14:41:16.439Z,56.00
2019-05-06T14:43:46.192Z,57.00
2019-05-06T14:46:15.942Z,57.20
2019-05-06T14:48:45.713Z,57.20
2019-05-06T14:51:15.796Z,58.60
2019-05-06T14:53:45.697Z,59.70
2019-05-06T14:56:24.559Z,60.40
2019-05-06T14:59:09.677Z,60.40
2019-05-06T15:01:45.076Z,60.20
2019-05-06T15:04:12.615Z,59.70
2019-05-06T15:06:42.751Z,60.70
2019-05-06T15:09:13.529Z,60.10
2019-05-06T15:11:43.763Z,62.10
2019-05-06T15:14:13.480Z,62.30
2019-05-06T15:16:44.184Z,60.80
2019-05-06T15:19:16.717Z,60.40
2019-05-06T15:21:46.553Z,60.10
2019-05-06T15:24:16.884Z,61.10
2019-05-06T15:26:46.628Z,60.00
2019-05-06T15:29:16.432Z,59.20
2019-05-06T15:32:03.851Z,59.20
2019-05-06T15:34:56.173Z,59.80
2019-05-06T15:37:33.891Z,60.40
2019-05-06T15:40:03.265Z,60.00
2019-05-06T15:42:34.222Z,58.60
2019-05-06T15:45:04.832Z,58.60
2019-05-06T15:47:34.625Z,59.90
2019-05-06T15:50:04.414Z,57.60
2019-05-06T15:52:34.189Z,58.50
2019-05-06T15:55:03.965Z,57.50
2019-05-06T15:57:33.755Z,56.80
2019-05-06T16:00:03.904Z,53.90
2019-05-06T16:02:34.463Z,55.40
2019-05-06T16:05:11.230Z,53.80
2019-05-06T16:07:37.322Z,53.90
2019-05-06T16:10:08.324Z,53.40
2019-05-06T16:12:38.005Z,52.20
2019-05-06T16:15:08.303Z,52.10
2019-05-06T16:17:37.978Z,54.50
2019-05-06T16:20:07.923Z,52.80
2019-05-06T16:22:37.609Z,53.20
2019-05-06T16:25:13.340Z,54.00
2019-05-06T16:27:44.101Z,53.60
2019-05-06T16:30:16.266Z,54.10
2019-05-06T16:32:46.003Z,55.10
2019-05-06T16:35:16.854Z,54.40
2019-05-06T16:37:46.470Z,55.40
2019-05-06T16:40:18.309Z,54.10
2019-05-06T16:42:48.437Z,55.50
2019-05-06T16:45:19.037Z,55.20
2019-05-06T16:47:49.123Z,56.80
2019-05-06T16:50:19.874Z,56.10
2019-05-06T16:52:52.299Z,57.30
2019-05-06T16:55:25.984Z,58.10
2019-05-06T16:58:10.400Z,57.50
2019-05-06T17:00:40.083Z,56.70
2019-05-06T17:03:23.096Z,58.10
2019-05-06T17:06:22.914Z,57.10
2019-05-06T17:08:52.827Z,56.40
2019-05-06T17:11:30.505Z,56.90
2019-05-06T17:13:54.126Z,56.10
2019-05-06T17:16:23.851Z,57.00
2019-05-06T17:18:56.512Z,58.30
2019-05-06T17:21:24.891Z,59.40
2019-05-06T17:23:55.367Z,61.30
2019-05-06T17:26:25.119Z,61.60
2019-05-06T17:29:14.142Z,61.80
2019-05-06T17:32:12.575Z,62.90
2019-05-06T17:34:47.605Z,60.70
2019-05-06T17:37:36.970Z,57.70
2019-05-06T17:40:11.806Z,57.20
2019-05-06T17:42:39.427Z,56.90
2019-05-06T17:45:27.404Z,56.70
2019-05-06T17:48:02.896Z,57.10
2019-05-06T17:50:33.341Z,56.20
2019-05-06T17:53:03.117Z,55.90
2019-05-06T17:55:32.867Z,57.10
2019-05-06T17:58:02.664Z,57.00
2019-05-06T18:00:32.496Z,57.00
2019-05-06T18:03:02.624Z,58.30
2019-05-06T18:05:32.645Z,57.80
2019-05-06T18:08:03.039Z,57.20
2019-05-06T18:10:33.582Z,58.00
2019-05-06T18:13:03.336Z,57.50
2019-05-06T18:15:33.136Z,56.90
2019-05-06T18:18:02.835Z,58.80
2019-05-06T18:20:33.512Z,58.30
2019-05-06T18:23:03.376Z,57.50
2019-05-06T18:25:33.293Z,57.60
2019-05-06T18:28:03.216Z,58.60
2019-05-06T18:30:36.908Z,58.40
2019-05-06T18:33:04.397Z,58.20
2019-05-06T18:35:34.123Z,58.20
2019-05-06T18:38:03.764Z,59.20
2019-05-06T18:40:33.725Z,59.90
2019-05-06T18:43:03.454Z,60.10
2019-05-06T18:45:33.647Z,61.00
2019-05-06T18:48:03.351Z,61.10
2019-05-06T18:50:33.127Z,61.80
2019-05-06T18:53:02.959Z,63.50
2019-05-06T18:55:33.213Z,62.80
2019-05-06T18:58:03.103Z,63.00
2019-05-06T19:00:32.827Z,63.50
2019-05-06T19:03:02.765Z,64.50
2019-05-06T19:05:36.083Z,65.20
2019-05-06T19:08:14.893Z,65.60
2019-05-06T19:10:44.677Z,65.90
2019-05-06T19:13:14.349Z,66.70
2019-05-06T19:15:44.136Z,66.50
2019-05-06T19:18:13.898Z,66.90
2019-05-06T19:20:43.630Z,66.80
2019-05-06T19:23:13.371Z,66.80
2019-05-06T19:25:43.196Z,67.90
2019-05-06T19:28:14.354Z,68.50
2019-05-06T19:30:44.393Z,69.30
2019-05-06T19:33:14.144Z,68.70
2019-05-06T19:35:43.854Z,69.70
2019-05-06T19:38:13.714Z,70.50
2019-05-06T19:40:43.533Z,71.00
2019-05-06T19:43:13.313Z,71.00
2019-05-06T19:45:43.019Z,70.60
2019-05-06T19:48:13.340Z,70.20
2019-05-06T19:50:43.771Z,70.10
2019-05-06T19:53:13.577Z,69.90
2019-05-06T19:55:46.681Z,70.70
2019-05-06T19:58:14.720Z,70.20
2019-05-06T20:00:44.460Z,69.90
2019-05-06T20:03:14.151Z,70.10
2019-05-06T20:06:02.765Z,70.70
2019-05-06T20:08:47.329Z,69.60
2019-05-06T20:11:42.579Z,70.70
2019-05-06T20:14:13.536Z,70.60
2019-05-06T20:16:43.427Z,70.70
2019-05-06T20:19:27.195Z,71.00
2019-05-06T20:21:46.839Z,71.60
2019-05-06T20:24:16.597Z,71.10
2019-05-06T20:26:46.375Z,71.80
2019-05-06T20:29:16.105Z,71.30
2019-05-06T20:31:45.894Z,70.90
2019-05-06T20:34:15.558Z,71.10
2019-05-06T20:36:45.298Z,70.70
2019-05-06T20:39:15.085Z,71.40
2019-05-06T20:41:44.744Z,72.00
2019-05-06T20:44:14.470Z,71.50
2019-05-06T20:46:44.165Z,71.80
2019-05-06T20:49:13.868Z,71.50
2019-05-06T20:51:43.579Z,71.20
2019-05-06T20:54:13.275Z,71.40
2019-05-06T20:56:43.115Z,71.20
2019-05-06T20:59:12.824Z,70.50
2019-05-06T21:01:42.665Z,70.60
2019-05-06T21:04:13.042Z,71.30
2019-05-06T21:06:43.041Z,71.20
2019-05-06T21:09:12.812Z,71.40
2019-05-06T21:11:42.583Z,70.40
2019-05-06T21:14:13.249Z,70.70
2019-05-06T21:16:43.203Z,70.80
2019-05-06T21:19:13.022Z,71.00
2019-05-06T21:21:43.347Z,71.00
2019-05-06T21:24:13.364Z,71.00
2019-05-06T21:26:46.237Z,71.00
2019-05-06T21:29:14.393Z,70.50
2019-05-06T21:31:44.245Z,71.10
2019-05-06T21:34:13.920Z,71.70
2019-05-06T21:36:46.605Z,71.90
2019-05-06T21:39:16.450Z,72.20
2019-05-06T21:41:46.258Z,71.80
2019-05-06T21:44:15.966Z,71.50
2019-05-06T21:46:45.823Z,72.20
2019-05-06T21:49:15.545Z,71.30
2019-05-06T21:51:45.358Z,71.30
2019-05-06T21:54:15.118Z,71.50
2019-05-06T21:56:44.966Z,71.80
2019-05-06T21:59:14.687Z,71.10
2019-05-06T22:01:44.389Z,72.00
2019-05-06T22:04:14.255Z,71.70
2019-05-06T22:06:45.629Z,71.50
2019-05-06T22:09:15.479Z,71.80
2019-05-06T22:11:45.285Z,71.70
2019-05-06T22:14:14.982Z,71.80
2019-05-06T22:16:44.769Z,72.00
2019-05-06T22:19:14.604Z,72.90
2019-05-06T22:22:03.511Z,72.20
2019-05-06T22:24:46.831Z,72.10
2019-05-06T22:27:17.443Z,72.30
2019-05-06T22:29:47.790Z,71.80
2019-05-06T22:32:17.709Z,72.70
2019-05-06T22:34:47.483Z,72.70
2019-05-06T22:37:17.339Z,72.80
2019-05-06T22:39:47.066Z,72.90
2019-05-06T22:42:16.830Z,72.40
2019-05-06T22:44:46.507Z,72.30
2019-05-06T22:47:16.240Z,72.60
2019-05-06T22:49:45.944Z,72.30
2019-05-06T22:52:15.716Z,72.10
2019-05-06T22:54:45.388Z,72.60
2019-05-06T22:57:15.273Z,72.60
2019-05-06T22:59:44.992Z,72.60
2019-05-06T23:02:48.887Z,72.60
2019-05-06T23:05:18.604Z,72.80
2019-05-06T23:07:48.309Z,72.40
2019-05-06T23:10:18.280Z,72.30
2019-05-06T23:12:48.425Z,72.50
2019-05-06T23:15:18.211Z,72.00
2019-05-06T23:17:47.979Z,72.70
2019-05-06T23:20:17.869Z,72.60
2019-05-06T23:22:47.559Z,73.20
2019-05-06T23:25:17.354Z,72.40
2019-05-06T23:27:47.086Z,72.60
2019-05-06T23:30:16.853Z,72.10
2019-05-06T23:32:46.552Z,73.00
2019-05-06T23:35:16.455Z,72.70
2019-05-06T23:38:23.013Z,72.70
2019-05-06T23:41:28.272Z,73.20
2019-05-06T23:44:45.038Z,73.50
2019-05-06T23:47:42.246Z,72.50
2019-05-06T23:50:47.802Z,73.40
2019-05-06T23:53:52.964Z,73.10
2019-05-06T23:56:42.855Z,73.10
2019-05-06T23:59:13.151Z,73.30
